Overview Statistics Trail Chart Weather Telemetry Raw packets
 

This is the latest recevied weather packets stored in our database for station/object K7PMV-13. If no packets are shown the sender has not sent any weather packets the latest 10 day(s).

<< 62 63 64 65 66 67 68 >>
Time Temp. Humidity Pressure Rain* Wind** Luminosity Snow
1777225718 22.22° C 33% 1007.9 hPa 0 mm - 638 W/m² -
1777225416 22.22° C 33% 1008 hPa 0 mm - 715 W/m² -
1777225077 22.22° C 34% 1008 hPa 0 mm - 749 W/m² -
1777224775 22.22° C 34% 1008 hPa 0 mm - 772 W/m² -
1777224472 21.67° C 35% 1008.1 hPa 0 mm - 0 W/m² -
1777173731 25° C 26% 1003.1 hPa 0 mm - 0 W/m² -
1777173428 25° C 26% 1003.1 hPa 0 mm - 0 W/m² -
1777173111 25° C 27% 1003.1 hPa 0 mm - 0 W/m² -
1777172800 25.56° C 27% 1003.1 hPa 0 mm - 0 W/m² -
1777172497 25.56° C 27% 1003 hPa 0 mm - 0 W/m² -
1777172195 25.56° C 27% 1003 hPa 0 mm - 0 W/m² -
1777171886 25.56° C 27% 1003 hPa 0 mm - 0 W/m² -
1777171583 25.56° C 27% 1002.8 hPa 0 mm - 0 W/m² -
1777171281 25.56° C 27% 1002.8 hPa 0 mm - 0 W/m² -
1777170978 25.56° C 27% 1002.7 hPa 0 mm - 0 W/m² -
1777170846 26.11° C 27% 1002.7 hPa 0 mm - 0 W/m² -
1777170675 26.11° C 27% 1002.7 hPa 0 mm - 0 W/m² -
1777170372 26.67° C 25% 1002.6 hPa 0 mm - 0 W/m² -
1777166403 28.33° C 22% 1002.7 hPa 0 mm - 51 W/m² -
1777166101 28.33° C 23% 1002.7 hPa 0 mm - 65 W/m² -
1777165798 28.33° C 23% 1002.7 hPa 0 mm - 91 W/m² -
1777165495 28.33° C 23% 1002.8 hPa 0 mm - 84 W/m² -
1777165193 28.33° C 23% 1002.8 hPa 0 mm - 90 W/m² -
1777164890 28.33° C 22% 1002.8 hPa 0 mm - 81 W/m² -
1777164587 28.33° C 23% 1002.8 hPa 0 mm - 76 W/m² -

* Rain latest hour (hover to see other rain measurements)
** Current wind speed in m/s (hover to see current wind gust speed)